Time;durP1;ratioP1;P1;durP2;ratioP2;P2;SDS_P1;SDS_P2;PMS_P1;PMS_P2;Temp;Humidity;BMP_temperature;BMP_pressure;BME280_temperature;BME280_humidity;BME280_pressure;Samples;Min_cycle;Max_cycle;Signal;HPM_P1;HPM_P2
2020/12/21 00:00:10;;;;;;;8.10;5.45;;;;;;;2.25;97.39;101495.78;1748475;80;21118;-70
2020/12/21 00:02:40;;;;;;;11.60;6.75;;;;;;;2.14;97.18;101504.80;1767784;80;21708;-69
2020/12/21 00:05:08;;;;;;;8.08;6.83;;;;;;;2.04;97.27;101500.88;1775051;80;21559;-70
2020/12/21 00:07:37;;;;;;;12.75;8.10;;;;;;;2.00;97.37;101500.00;1770865;80;21308;-68
2020/12/21 00:10:07;;;;;;;10.28;6.35;;;;;;;2.00;97.53;101501.33;1759702;80;21132;-68
2020/12/21 00:12:35;;;;;;;11.20;6.28;;;;;;;2.05;97.78;101499.91;1748047;80;21020;-67
2020/12/21 00:15:05;;;;;;;10.60;7.53;;;;;;;2.07;97.64;101499.73;1777139;80;21580;-68
2020/12/21 00:17:34;;;;;;;14.50;10.93;;;;;;;2.04;97.54;101502.20;1776567;79;21547;-70
2020/12/21 00:20:04;;;;;;;13.45;9.65;;;;;;;1.98;97.59;101498.81;1774909;80;21189;-71
2020/12/21 00:22:31;;;;;;;13.72;8.85;;;;;;;1.98;97.79;101498.81;1772827;80;21262;-73
2020/12/21 00:24:59;;;;;;;14.30;8.40;;;;;;;2.05;98.09;101500.39;1756778;80;21095;-69
2020/12/21 00:27:26;;;;;;;8.98;5.85;;;;;;;2.05;98.05;101498.58;1759124;80;21609;-72
2020/12/21 00:29:55;;;;;;;13.00;8.23;;;;;;;2.01;98.03;101497.21;1723501;80;21180;-70
2020/12/21 00:32:22;;;;;;;11.33;8.08;;;;;;;1.99;97.98;101494.34;1728953;81;21460;-72
2020/12/21 00:34:50;;;;;;;14.63;10.65;;;;;;;1.97;98.00;101491.84;1734399;82;21006;-74
2020/12/21 00:37:18;;;;;;;12.98;7.60;;;;;;;1.97;98.00;101490.51;1756910;80;21176;-69
2020/12/21 00:39:48;;;;;;;13.48;7.58;;;;;;;1.95;98.04;101487.19;1727159;82;21164;-68
2020/12/21 00:42:15;;;;;;;11.43;7.65;;;;;;;1.95;98.28;101481.88;1728806;83;21585;-67
2020/12/21 00:44:43;;;;;;;12.88;7.37;;;;;;;1.92;98.39;101482.69;1759163;80;22259;-68
2020/12/21 00:47:11;;;;;;;13.50;9.50;;;;;;;1.87;98.38;101478.31;1758687;80;21617;-72
2020/12/21 00:49:39;;;;;;;16.65;9.98;;;;;;;1.86;98.55;101485.92;1728598;81;21168;-70
2020/12/21 00:52:07;;;;;;;14.05;8.40;;;;;;;1.91;98.81;101475.70;1756891;81;21064;-70
2020/12/21 00:54:35;;;;;;;11.05;7.08;;;;;;;1.93;98.82;101479.86;1737735;81;21541;-71
2020/12/21 00:57:03;;;;;;;14.15;9.05;;;;;;;1.96;98.85;101480.91;1737396;81;21197;-71
2020/12/21 00:59:30;;;;;;;12.73;8.65;;;;;;;1.93;98.73;101483.84;1737330;82;21065;-72
2020/12/21 01:01:59;;;;;;;12.50;7.92;;;;;;;1.87;98.60;101480.45;1736942;82;21061;-73
2020/12/21 01:04:27;;;;;;;14.33;9.15;;;;;;;1.87;98.78;101484.95;1736822;82;21148;-71
2020/12/21 01:06:54;;;;;;;17.25;10.32;;;;;;;1.82;98.90;101472.13;1737552;81;21178;-71
2020/12/21 01:09:22;;;;;;;14.63;9.45;;;;;;;1.82;98.96;101476.11;1737572;82;22070;-70
2020/12/21 01:11:53;;;;;;;13.18;8.35;;;;;;;1.85;99.09;101473.15;1737456;82;21604;-74
2020/12/21 01:14:22;;;;;;;11.93;6.78;;;;;;;1.89;99.12;101481.63;1737150;82;21636;-70
2020/12/21 01:16:49;;;;;;;14.33;9.18;;;;;;;1.88;99.07;101481.28;1736904;82;21163;-71
2020/12/21 01:19:17;;;;;;;17.40;11.38;;;;;;;1.81;99.05;101478.91;1737492;82;21114;-73
2020/12/21 01:21:45;;;;;;;17.65;12.20;;;;;;;1.82;99.18;101481.42;1737953;82;21284;-69
2020/12/21 01:24:12;;;;;;;11.28;6.33;;;;;;;1.86;99.40;101477.97;1737811;82;21616;-69
2020/12/21 01:26:40;;;;;;;15.80;9.50;;;;;;;1.90;99.52;101476.19;1737899;82;21195;-72
2020/12/21 01:29:08;;;;;;;14.15;8.80;;;;;;;1.85;99.22;101478.45;1737948;82;21198;-71
2020/12/21 01:31:35;;;;;;;12.65;6.80;;;;;;;1.77;99.14;101481.03;1738612;82;21652;-70
2020/12/21 01:34:05;;;;;;;13.48;9.65;;;;;;;1.78;99.29;101480.51;1736907;82;22249;-71
2020/12/21 01:36:33;;;;;;;11.95;7.42;;;;;;;1.80;99.35;101481.20;1737985;82;21187;-71
2020/12/21 01:39:00;;;;;;;14.80;9.60;;;;;;;1.86;99.40;101477.97;1733366;82;22296;-69
2020/12/21 01:41:28;;;;;;;15.35;9.23;;;;;;;1.88;99.41;101482.13;1722857;82;21027;-71
2020/12/21 01:43:56;;;;;;;14.63;8.95;;;;;;;1.86;99.36;101477.48;1737646;82;21124;-73
2020/12/21 01:46:24;;;;;;;14.45;9.98;;;;;;;1.86;99.39;101472.17;1737642;82;21209;-70
2020/12/21 01:48:52;;;;;;;10.70;6.67;;;;;;;1.92;99.48;101475.53;1737656;82;21221;-71
2020/12/21 01:51:24;;;;;;;13.18;9.30;;;;;;;2.02;99.64;101470.16;1755681;78;21154;-72
2020/12/21 01:53:51;;;;;;;11.45;8.38;;;;;;;2.01;99.20;101479.12;1777453;80;21106;-73
2020/12/21 01:56:20;;;;;;;12.58;8.35;;;;;;;1.96;98.97;101476.92;1753462;81;21188;-71
2020/12/21 01:58:49;;;;;;;16.37;9.63;;;;;;;1.85;98.75;101474.96;1750391;80;22261;-70
2020/12/21 02:01:18;;;;;;;15.28;8.40;;;;;;;1.79;98.83;101475.55;1749163;80;21139;-73
2020/12/21 02:03:48;;;;;;;11.60;7.50;;;;;;;1.77;99.08;101477.54;1766480;80;21034;-70
2020/12/21 02:06:17;;;;;;;13.50;8.00;;;;;;;1.77;99.17;101473.06;1784374;80;21173;-71
2020/12/21 02:08:45;;;;;;;17.32;9.13;;;;;;;1.79;99.35;101468.92;1780704;80;21103;-71
2020/12/21 02:11:13;;;;;;;14.60;9.75;;;;;;;1.84;99.49;101469.31;1776238;80;21362;-71
2020/12/21 02:13:42;;;;;;;21.35;11.22;;;;;;;1.88;99.58;101471.52;1761136;80;21110;-71
2020/12/21 02:16:14;;;;;;;21.35;11.78;;;;;;;1.90;99.53;101473.53;1784495;80;21610;-70
2020/12/21 02:18:40;;;;;;;18.77;9.95;;;;;;;1.92;99.49;101472.06;1784334;80;21232;-71
2020/12/21 02:21:09;;;;;;;16.17;10.40;;;;;;;1.87;99.45;101469.03;1782243;80;21141;-70
2020/12/21 02:23:36;;;;;;;25.48;13.28;;;;;;;1.82;99.57;101470.80;1759527;80;21365;-71
2020/12/21 02:26:05;;;;;;;22.55;12.33;;;;;;;1.77;99.59;101470.41;1774140;80;21154;-73
2020/12/21 02:28:32;;;;;;;21.52;12.15;;;;;;;1.83;99.77;101467.63;1774134;80;21005;-71
2020/12/21 02:31:01;;;;;;;20.80;11.48;;;;;;;1.80;99.72;101471.92;1766341;80;21023;-70
2020/12/21 02:33:29;;;;;;;19.70;12.60;;;;;;;1.83;99.85;101467.14;1784090;80;21130;-71
2020/12/21 02:35:58;;;;;;;17.65;10.55;;;;;;;1.81;99.87;101464.31;1784429;80;21149;-71
2020/12/21 02:38:26;;;;;;;19.15;11.28;;;;;;;1.80;99.94;101463.47;1775915;80;21008;-73
2020/12/21 02:40:54;;;;;;;15.75;11.22;;;;;;;1.75;99.92;101470.55;1755361;80;21126;-71
2020/12/21 02:43:21;;;;;;;16.45;10.43;;;;;;;1.74;100.00;101474.19;1781431;80;21543;-70
2020/12/21 02:45:49;;;;;;;25.68;15.15;;;;;;;1.70;100.00;101474.14;1778473;80;21133;-72
2020/12/21 02:48:17;;;;;;;28.12;16.48;;;;;;;1.75;100.00;101478.52;1784054;80;21193;-72
2020/12/21 02:50:46;;;;;;;20.92;14.60;;;;;;;1.80;100.00;101485.19;1772691;80;21190;-69
2020/12/21 02:53:15;;;;;;;20.80;12.50;;;;;;;1.88;100.00;101477.30;1784293;80;21139;-70
2020/12/21 02:55:45;;;;;;;29.60;17.37;;;;;;;1.96;100.00;101477.41;1780336;80;21149;-70
2020/12/21 02:58:13;;;;;;;28.57;13.93;;;;;;;2.00;100.00;101480.94;1774930;80;21481;-70
2020/12/21 03:00:42;;;;;;;40.38;19.37;;;;;;;1.99;100.00;101477.09;1758395;80;21364;-69
2020/12/21 03:03:12;;;;;;;34.45;17.37;;;;;;;1.99;100.00;101487.23;1738370;82;21122;-70
2020/12/21 03:05:42;;;;;;;35.38;18.00;;;;;;;2.01;100.00;101485.27;1737975;82;21158;-70
2020/12/21 03:08:11;;;;;;;24.07;13.25;;;;;;;2.02;100.00;101484.26;1738002;82;21036;-69
2020/12/21 03:10:39;;;;;;;21.20;13.53;;;;;;;2.03;100.00;101489.08;1745160;80;21121;-70
2020/12/21 03:13:08;;;;;;;22.02;13.50;;;;;;;2.03;100.00;101491.73;1784607;80;21199;-74
2020/12/21 03:15:38;;;;;;;16.80;10.30;;;;;;;1.98;99.88;101491.34;1785042;80;21122;-69
2020/12/21 03:18:06;;;;;;;21.45;12.10;;;;;;;1.93;99.70;101488.30;1785189;80;21090;-69
2020/12/21 03:20:33;;;;;;;23.65;12.93;;;;;;;1.89;99.76;101493.57;1785086;80;21134;-69
2020/12/21 03:23:01;;;;;;;22.27;11.45;;;;;;;1.89;99.85;101497.06;1785264;80;21154;-70
2020/12/21 03:25:29;;;;;;;23.30;13.43;;;;;;;1.88;99.94;101497.20;1785370;80;21425;-72
2020/12/21 03:27:57;;;;;;;23.35;13.43;;;;;;;1.88;100.00;101498.05;1785153;80;21090;-69
2020/12/21 03:30:25;;;;;;;21.33;12.55;;;;;;;1.90;100.00;101496.09;1751005;80;21460;-73
2020/12/21 03:32:53;;;;;;;16.95;10.45;;;;;;;1.92;99.98;101503.39;1753701;80;21574;-73
2020/12/21 03:35:24;;;;;;;21.93;12.82;;;;;;;1.94;100.00;101493.96;1751081;81;20979;-70
2020/12/21 03:37:51;;;;;;;21.30;12.45;;;;;;;1.98;100.00;101495.33;1752325;81;21556;-70
2020/12/21 03:40:18;;;;;;;15.60;9.33;;;;;;;2.04;100.00;101493.41;1753294;80;21182;-85
2020/12/21 03:42:47;;;;;;;15.85;9.43;;;;;;;2.08;100.00;101500.08;1749854;81;21171;-71
2020/12/21 03:45:15;;;;;;;16.95;9.58;;;;;;;2.02;99.75;101497.53;1710180;84;21660;-71
2020/12/21 03:47:43;;;;;;;18.95;12.05;;;;;;;1.92;99.49;101493.30;1709962;84;21206;-70
2020/12/21 03:50:10;;;;;;;10.18;6.80;;;;;;;1.86;99.57;101496.05;1735866;81;22009;-70
2020/12/21 03:52:38;;;;;;;18.07;11.40;;;;;;;1.89;99.76;101500.20;1753910;81;21175;-71
2020/12/21 03:55:06;;;;;;;14.00;7.95;;;;;;;1.90;99.96;101503.20;1755933;81;21132;-71
2020/12/21 03:57:34;;;;;;;19.20;10.35;;;;;;;2.03;100.00;101491.73;1756011;81;21617;-69
2020/12/21 04:00:02;;;;;;;15.32;9.18;;;;;;;2.03;99.78;101489.08;1729119;82;21175;-69
2020/12/21 04:02:34;;;;;;;21.80;12.30;;;;;;;1.92;99.37;101486.14;1736708;82;21205;-71
2020/12/21 04:05:04;;;;;;;16.70;10.80;;;;;;;1.81;99.30;101488.19;1742555;82;21018;-70
2020/12/21 04:07:35;;;;;;;15.23;10.03;;;;;;;1.84;99.57;101494.52;1739252;82;21677;-70
2020/12/21 04:10:05;;;;;;;12.23;7.50;;;;;;;1.91;99.85;101488.97;1717031;82;21637;-70
2020/12/21 04:12:35;;;;;;;14.20;8.63;;;;;;;1.90;99.80;101489.94;1728161;82;21160;-67
2020/12/21 04:15:04;;;;;;;16.10;9.45;;;;;;;1.83;99.66;101492.83;1753660;81;21304;-71
2020/12/21 04:17:32;;;;;;;16.97;9.13;;;;;;;1.77;99.67;101494.78;1755829;81;21161;-69
2020/12/21 04:20:00;;;;;;;17.73;10.13;;;;;;;1.74;99.85;101495.89;1742675;82;21584;-69
2020/12/21 04:22:28;;;;;;;22.00;12.53;;;;;;;1.73;100.00;101496.38;1742609;82;21151;-69
2020/12/21 04:24:56;;;;;;;14.05;10.00;;;;;;;1.72;100.00;101496.06;1742772;82;21126;-71
2020/12/21 04:27:24;;;;;;;10.30;7.55;;;;;;;1.83;100.00;101498.14;1743520;82;21381;-68
2020/12/21 04:29:51;;;;;;;16.05;9.43;;;;;;;1.82;100.00;101496.50;1742651;82;21175;-72
2020/12/21 04:32:19;;;;;;;19.27;9.33;;;;;;;1.79;100.00;101492.30;1732637;82;21255;-68
2020/12/21 04:34:46;;;;;;;23.50;11.40;;;;;;;1.78;100.00;101497.75;1779919;80;21156;-70
2020/12/21 04:37:14;;;;;;;20.15;10.38;;;;;;;1.78;100.00;101491.12;1759440;80;21136;-69
2020/12/21 04:39:42;;;;;;;27.95;13.30;;;;;;;1.83;100.00;101494.16;1738547;81;21203;-68
2020/12/21 04:42:10;;;;;;;32.60;18.40;;;;;;;1.83;100.00;101485.72;1765329;80;21173;-69
2020/12/21 04:44:37;;;;;;;29.67;14.85;;;;;;;1.87;100.00;101483.63;1785407;80;21117;-69
2020/12/21 04:47:05;;;;;;;32.83;16.10;;;;;;;1.85;100.00;101491.72;1785426;80;21153;-68
2020/12/21 04:49:34;;;;;;;28.80;15.25;;;;;;;1.78;99.93;101490.63;1785394;80;21098;-68
2020/12/21 04:52:05;;;;;;;26.20;14.78;;;;;;;1.74;99.95;101490.10;1784962;78;21192;-71
2020/12/21 04:54:33;;;;;;;28.45;16.05;;;;;;;1.72;100.00;101489.43;1771171;80;21642;-69
2020/12/21 04:57:01;;;;;;;33.35;17.27;;;;;;;1.73;100.00;101486.26;1751863;81;21638;-71
2020/12/21 04:59:29;;;;;;;38.78;22.30;;;;;;;1.77;100.00;101486.82;1750491;80;21585;-71
2020/12/21 05:01:57;;;;;;;32.70;21.73;;;;;;;1.75;100.00;101483.82;1748348;80;21134;-71
2020/12/21 05:04:25;;;;;;;27.13;15.30;;;;;;;1.76;100.00;101484.66;1776018;80;21559;-71
2020/12/21 05:06:56;;;;;;;43.60;26.37;;;;;;;1.75;100.00;101488.28;1784792;80;20960;-71
2020/12/21 05:09:24;;;;;;;30.15;16.25;;;;;;;1.78;100.00;101479.18;1785536;80;21058;-70
2020/12/21 05:12:03;;;;;;;25.57;16.82;;;;;;;1.83;100.00;101488.37;1784509;80;21232;-71
2020/12/21 05:14:35;;;;;;;30.37;19.45;;;;;;;1.79;99.87;101484.84;1777991;80;28889;-72
2020/12/21 05:17:14;;;;;;;27.77;17.37;;;;;;;1.73;99.80;101481.80;1760099;80;22273;-73
2020/12/21 05:19:43;;;;;;;40.40;22.87;;;;;;;1.76;99.85;101480.68;1742804;82;21737;-73
2020/12/21 05:22:15;;;;;;;52.30;26.12;;;;;;;1.84;100.00;101474.61;1709925;84;21130;-72
2020/12/21 05:24:43;;;;;;;50.47;30.67;;;;;;;1.90;99.95;101481.49;1710126;83;21182;-69
2020/12/21 05:27:16;;;;;;;62.35;34.55;;;;;;;1.89;99.71;101475.84;1710013;84;21591;-72
2020/12/21 05:29:54;;;;;;;60.17;31.95;;;;;;;1.84;99.45;101481.24;1709806;84;21217;-70
2020/12/21 05:32:23;;;;;;;63.00;31.50;;;;;;;1.82;99.46;101483.23;1709876;83;21133;-69
2020/12/21 05:34:50;;;;;;;53.98;30.25;;;;;;;1.77;99.46;101485.00;1709822;84;21271;-70
2020/12/21 05:37:20;;;;;;;44.05;23.07;;;;;;;1.76;99.52;101492.62;1709767;84;21804;-71
2020/12/21 05:39:54;;;;;;;42.50;23.00;;;;;;;1.76;99.62;101489.97;1709959;84;21703;-70
2020/12/21 05:42:25;;;;;;;41.48;26.07;;;;;;;1.79;99.66;101492.80;1709955;84;21602;-68
2020/12/21 05:44:59;;;;;;;37.45;23.77;;;;;;;1.75;99.46;101489.12;1709898;83;21631;-72
2020/12/21 05:47:28;;;;;;;41.85;24.82;;;;;;;1.80;99.57;101499.29;1709861;84;21583;-71
2020/12/21 05:50:06;;;;;;;29.63;18.92;;;;;;;1.80;99.34;101501.10;1710068;83;21222;-71
2020/12/21 05:52:36;;;;;;;30.05;15.95;;;;;;;1.77;99.32;101501.41;1712500;83;21082;-69
2020/12/21 05:55:09;;;;;;;26.87;16.67;;;;;;;1.74;99.34;101507.34;1713690;83;21371;-71
2020/12/21 05:57:38;;;;;;;21.60;16.17;;;;;;;1.73;99.34;101506.99;1745608;81;21142;-70
2020/12/21 06:00:08;;;;;;;15.55;10.45;;;;;;;1.78;99.45;101514.50;1750644;81;21537;-71
2020/12/21 06:02:36;;;;;;;16.57;9.98;;;;;;;1.82;99.45;101519.88;1754185;81;21168;-69
2020/12/21 06:05:07;;;;;;;11.40;9.63;;;;;;;1.83;99.35;101526.84;1754100;81;21188;-69
2020/12/21 06:07:36;;;;;;;12.33;8.00;;;;;;;1.87;99.46;101518.92;1753695;81;21463;-72
2020/12/21 06:10:07;;;;;;;10.18;6.78;;;;;;;1.89;99.28;101518.78;1753103;81;21060;-68
2020/12/21 06:12:48;;;;;;;18.23;13.65;;;;;;;1.91;99.17;101528.27;1754213;81;21136;-69
2020/12/21 06:15:20;;;;;;;14.45;9.98;;;;;;;1.91;98.94;101530.92;1754212;81;21770;-69
2020/12/21 06:17:48;;;;;;;12.33;8.95;;;;;;;1.88;98.79;101530.37;1754238;81;21569;-69
2020/12/21 06:20:17;;;;;;;11.15;8.83;;;;;;;1.89;98.85;101528.06;1753249;81;22236;-70
2020/12/21 06:22:45;;;;;;;8.35;6.47;;;;;;;1.88;98.77;101529.88;1753530;81;21233;-70
2020/12/21 06:25:23;;;;;;;9.58;6.75;;;;;;;1.89;98.73;101523.59;1754197;81;21628;-69
2020/12/21 06:27:50;;;;;;;9.68;7.62;;;;;;;1.84;98.43;101527.19;1754120;81;21135;-69
2020/12/21 06:30:27;;;;;;;9.85;8.45;;;;;;;1.82;98.44;101530.98;1728740;82;21226;-68
2020/12/21 06:33:02;;;;;;;11.78;8.80;;;;;;;1.82;98.50;101527.84;1741553;82;21404;-70
2020/12/21 06:35:42;;;;;;;9.48;7.05;;;;;;;1.83;98.50;101529.98;1742109;82;21130;-70
2020/12/21 06:38:16;;;;;;;11.05;6.95;;;;;;;1.81;98.40;101528.81;1741969;82;21003;-69
2020/12/21 06:40:44;;;;;;;9.80;6.97;;;;;;;1.80;98.33;101524.98;1744363;81;21231;-72
2020/12/21 06:43:14;;;;;;;17.00;12.53;;;;;;;1.79;98.32;101530.77;1745141;81;21162;-69
2020/12/21 06:45:43;;;;;;;23.75;13.83;;;;;;;1.77;98.32;101528.77;1741413;82;22332;-69
2020/12/21 06:48:21;;;;;;;11.48;8.03;;;;;;;1.80;98.44;101530.28;1741356;82;21130;-70
2020/12/21 06:50:49;;;;;;;22.48;13.90;;;;;;;1.84;98.61;101527.19;1741362;82;21186;-70
2020/12/21 06:53:17;;;;;;;16.07;10.90;;;;;;;1.83;98.60;101529.48;1742478;81;21038;-70
2020/12/21 06:55:44;;;;;;;28.47;15.23;;;;;;;1.84;98.64;101525.86;1738500;82;21131;-71
2020/12/21 06:58:12;;;;;;;23.65;13.88;;;;;;;1.85;98.62;101528.86;1743545;81;21394;-70
2020/12/21 07:00:40;;;;;;;24.20;12.03;;;;;;;1.86;98.61;101529.70;1738230;81;21185;-71
2020/12/21 07:03:09;;;;;;;15.78;11.55;;;;;;;1.88;98.61;101535.19;1743312;82;21166;-71
2020/12/21 07:05:36;;;;;;;17.95;12.78;;;;;;;1.88;98.65;101531.20;1738413;82;21170;-71
2020/12/21 07:08:08;;;;;;;9.95;7.95;;;;;;;1.88;98.60;101536.52;1728980;81;21158;-71
2020/12/21 07:10:38;;;;;;;9.50;7.45;;;;;;;1.89;98.63;101536.86;1738315;82;21218;-70
2020/12/21 07:13:05;;;;;;;17.70;13.40;;;;;;;1.93;98.72;101533.41;1743278;82;21149;-71
2020/12/21 07:15:33;;;;;;;18.05;11.12;;;;;;;1.92;98.48;101529.11;1738593;82;21121;-70
2020/12/21 07:18:01;;;;;;;31.77;17.67;;;;;;;1.90;98.38;101523.95;1744758;81;21000;-72
2020/12/21 07:20:30;;;;;;;30.32;20.68;;;;;;;1.89;98.47;101523.59;1739279;82;21142;-71
2020/12/21 07:22:57;;;;;;;28.25;19.77;;;;;;;1.88;98.46;101523.25;1743527;82;21152;-71
2020/12/21 07:25:25;;;;;;;29.45;18.82;;;;;;;1.84;98.33;101529.00;1738308;82;21064;-70
2020/12/21 07:27:53;;;;;;;29.10;21.23;;;;;;;1.81;98.28;101527.98;1743396;82;21112;-70
2020/12/21 07:30:26;;;;;;;24.70;16.93;;;;;;;1.84;98.43;101528.52;1738345;82;21582;-69
2020/12/21 07:32:54;;;;;;;25.20;19.95;;;;;;;1.87;98.51;101529.53;1743690;82;21530;-69
2020/12/21 07:35:21;;;;;;;26.07;16.75;;;;;;;1.92;98.71;101525.13;1738479;82;21588;-68
2020/12/21 07:37:51;;;;;;;21.93;16.32;;;;;;;2.02;98.86;101532.03;1742396;81;21161;-72
2020/12/21 07:40:20;;;;;;;22.80;16.70;;;;;;;2.06;98.62;101532.06;1738420;82;21594;-71
2020/12/21 07:42:49;;;;;;;20.55;14.07;;;;;;;2.06;98.36;101540.55;1743346;82;21543;-71
2020/12/21 07:45:17;;;;;;;20.62;13.80;;;;;;;2.03;98.29;101539.01;1738791;82;21582;-72
2020/12/21 07:47:45;;;;;;;25.05;15.78;;;;;;;2.03;98.20;101538.17;1743628;82;21259;-71
2020/12/21 07:50:13;;;;;;;23.00;15.75;;;;;;;2.02;98.17;101537.33;1738401;82;21315;-68
2020/12/21 07:52:42;;;;;;;25.88;16.80;;;;;;;2.02;98.12;101542.64;1746127;81;21565;-70
2020/12/21 07:55:10;;;;;;;15.58;12.25;;;;;;;2.03;98.12;101539.01;1755870;81;21154;-70
2020/12/21 07:57:38;;;;;;;18.95;13.80;;;;;;;2.05;98.11;101529.59;1755993;81;20994;-72
2020/12/21 08:00:05;;;;;;;19.42;12.73;;;;;;;2.07;98.19;101527.11;1756109;81;21537;-69
2020/12/21 08:02:34;;;;;;;23.52;16.07;;;;;;;2.14;98.70;101525.53;1756855;81;21120;-68
2020/12/21 08:05:01;;;;;;;26.85;18.70;;;;;;;2.18;98.70;101526.91;1745700;81;21142;-69
2020/12/21 08:07:33;;;;;;;33.05;23.15;;;;;;;2.23;98.78;101531.76;1753213;81;21080;-68
2020/12/21 08:10:00;;;;;;;42.27;27.00;;;;;;;2.24;98.83;101517.51;1753356;81;21200;-71
2020/12/21 08:12:30;;;;;;;41.28;24.67;;;;;;;2.27;98.91;101526.97;1709749;83;21288;-71
2020/12/21 08:15:02;;;;;;;33.98;22.00;;;;;;;2.25;98.65;101523.16;1709792;83;21082;-71
2020/12/21 08:17:31;;;;;;;25.60;18.40;;;;;;;2.23;98.41;101530.43;1710002;83;21150;-70
2020/12/21 08:20:05;;;;;;;20.88;13.25;;;;;;;2.23;98.35;101534.91;1709808;83;21650;-70
2020/12/21 08:22:33;;;;;;;22.77;15.63;;;;;;;2.27;98.39;101532.28;1709760;83;21172;-72
2020/12/21 08:25:12;;;;;;;21.50;13.13;;;;;;;2.26;98.09;101536.76;1709645;83;21286;-69
2020/12/21 08:27:52;;;;;;;22.07;15.50;;;;;;;2.22;97.81;101533.22;1691708;82;21062;-69
2020/12/21 08:30:22;;;;;;;17.37;13.72;;;;;;;2.17;97.57;101532.35;1709950;83;21636;-71
2020/12/21 08:32:52;;;;;;;15.03;9.93;;;;;;;2.12;97.46;101532.80;1709757;83;21162;-71
2020/12/21 08:35:27;;;;;;;15.68;11.73;;;;;;;2.10;97.39;101536.61;1710007;83;21213;-69
2020/12/21 08:38:07;;;;;;;17.20;13.32;;;;;;;2.13;97.66;101546.91;1709955;83;21600;-70
2020/12/21 08:40:35;;;;;;;11.40;8.88;;;;;;;2.17;97.88;101538.98;1709911;83;21615;-74
2020/12/21 08:43:03;;;;;;;15.72;10.40;;;;;;;2.24;97.95;101533.92;1709963;83;21003;-70
2020/12/21 08:45:34;;;;;;;17.02;10.68;;;;;;;2.23;97.57;101536.23;1710975;83;21051;-73
2020/12/21 08:48:02;;;;;;;14.83;10.70;;;;;;;2.17;97.41;101530.53;1682911;83;21170;-73
2020/12/21 08:50:31;;;;;;;22.13;13.55;;;;;;;2.19;97.45;101531.23;1709902;83;21334;-72
2020/12/21 08:52:58;;;;;;;14.03;10.65;;;;;;;2.12;97.22;101524.00;1709948;82;21216;-72
2020/12/21 08:55:26;;;;;;;15.00;11.88;;;;;;;2.11;97.29;101525.82;1756220;81;21175;-72
2020/12/21 08:57:53;;;;;;;14.87;10.40;;;;;;;2.12;97.22;101523.52;1756031;81;21120;-71
2020/12/21 09:00:22;;;;;;;13.48;10.45;;;;;;;2.11;96.89;101529.80;1756013;81;21183;-70
2020/12/21 09:02:50;;;;;;;11.68;9.00;;;;;;;2.08;96.69;101530.60;1747219;81;21200;-71
2020/12/21 09:05:18;;;;;;;13.43;10.25;;;;;;;2.06;96.60;101534.72;1743326;82;21927;-70
2020/12/21 09:07:46;;;;;;;12.13;9.45;;;;;;;2.08;96.80;101530.60;1743372;81;21058;-70
2020/12/21 09:10:15;;;;;;;15.68;11.73;;;;;;;2.09;96.70;101532.28;1743303;82;21458;-70
2020/12/21 09:12:43;;;;;;;13.13;10.00;;;;;;;2.08;96.74;101524.80;1744292;81;21624;-70
2020/12/21 09:15:11;;;;;;;17.52;12.33;;;;;;;2.10;96.78;101522.84;1743286;82;21377;-70
2020/12/21 09:17:38;;;;;;;18.30;12.10;;;;;;;2.10;96.69;101517.54;1743397;82;21667;-72
2020/12/21 09:20:06;;;;;;;18.05;13.53;;;;;;;2.05;96.64;101513.17;1746467;81;21562;-71
2020/12/21 09:22:33;;;;;;;23.90;16.25;;;;;;;1.98;96.50;101513.91;1748987;81;22072;-69
2020/12/21 09:25:01;;;;;;;16.27;11.48;;;;;;;1.97;96.64;101511.73;1743327;81;21200;-72
2020/12/21 09:27:30;;;;;;;17.65;11.70;;;;;;;1.97;96.70;101516.20;1743833;82;21359;-71
2020/12/21 09:29:58;;;;;;;20.52;13.43;;;;;;;1.92;96.70;101518.50;1744824;81;21035;-73
2020/12/21 09:32:25;;;;;;;17.20;11.63;;;;;;;1.94;97.04;101517.84;1743920;81;21594;-70
2020/12/21 09:34:53;;;;;;;17.52;11.57;;;;;;;1.95;97.14;101509.74;1719868;82;21019;-72
2020/12/21 09:37:21;;;;;;;21.93;15.78;;;;;;;2.01;97.38;101511.80;1686441;83;21598;-72
2020/12/21 09:39:48;;;;;;;17.50;11.90;;;;;;;2.05;97.35;101514.98;1743502;82;21432;-71
2020/12/21 09:42:16;;;;;;;13.35;9.53;;;;;;;2.05;97.34;101505.21;1734856;82;21086;-71
2020/12/21 09:44:47;;;;;;;15.08;12.10;;;;;;;2.08;97.29;101508.04;1737292;82;21223;-71
2020/12/21 09:47:13;;;;;;;14.63;9.75;;;;;;;2.14;97.30;101510.10;1712043;83;21661;-69
2020/12/21 09:49:42;;;;;;;12.78;10.03;;;;;;;2.22;97.36;101501.37;1712771;83;21174;-71
2020/12/21 09:52:10;;;;;;;14.43;9.90;;;;;;;2.28;97.13;101495.47;1712784;83;21221;-71
2020/12/21 09:54:39;;;;;;;13.25;9.53;;;;;;;2.29;96.80;101494.00;1713008;83;21198;-71
2020/12/21 09:57:06;;;;;;;11.90;8.90;;;;;;;2.30;96.39;101490.36;1743742;81;21134;-72
2020/12/21 09:59:34;;;;;;;11.38;9.75;;;;;;;2.31;96.30;101477.89;1713318;82;21009;-72
2020/12/21 10:02:07;;;;;;;12.93;8.85;;;;;;;2.28;95.82;101485.69;1741428;82;21194;-70
2020/12/21 10:04:34;;;;;;;17.55;10.93;;;;;;;2.17;95.47;101485.41;1713563;83;25598;-68
2020/12/21 10:07:02;;;;;;;16.10;11.10;;;;;;;2.13;95.68;101488.03;1741087;81;21018;-73
2020/12/21 10:09:31;;;;;;;16.25;10.53;;;;;;;2.14;95.74;101484.89;1741091;82;21183;-71
2020/12/21 10:11:59;;;;;;;11.57;8.75;;;;;;;2.11;95.60;101486.53;1741996;82;21054;-73
2020/12/21 10:14:27;;;;;;;19.35;12.58;;;;;;;2.08;95.75;101483.67;1753021;81;21120;-71
2020/12/21 10:16:55;;;;;;;19.07;11.80;;;;;;;2.06;95.80;101480.31;1754232;81;22354;-71
2020/12/21 10:19:23;;;;;;;17.95;13.72;;;;;;;2.06;95.88;101484.30;1754256;81;21140;-71
2020/12/21 10:21:51;;;;;;;18.95;12.37;;;;;;;2.08;95.96;101482.34;1754286;81;21604;-71
2020/12/21 10:24:18;;;;;;;17.37;11.12;;;;;;;2.06;95.95;101489.61;1754200;81;21100;-73
2020/12/21 10:26:46;;;;;;;18.85;13.48;;;;;;;2.04;95.63;101485.45;1746818;81;21157;-71
2020/12/21 10:29:14;;;;;;;18.70;11.75;;;;;;;1.94;94.77;101484.67;1713332;82;21400;-71
2020/12/21 10:31:43;;;;;;;13.40;10.20;;;;;;;1.90;94.80;101481.49;1713393;83;21654;-70
2020/12/21 10:34:10;;;;;;;16.32;13.30;;;;;;;1.92;94.54;101482.16;1741442;81;21149;-70
2020/12/21 10:36:38;;;;;;;17.48;12.95;;;;;;;1.96;94.61;101489.35;1751929;81;21036;-71
2020/12/21 10:39:06;;;;;;;21.68;14.70;;;;;;;2.03;94.66;101487.75;1754233;81;21581;-69
2020/12/21 10:41:34;;;;;;;20.40;14.00;;;;;;;2.00;94.31;101478.28;1750155;81;22307;-71
2020/12/21 10:44:02;;;;;;;20.23;13.45;;;;;;;1.99;94.15;101483.73;1748496;81;21243;-73
2020/12/21 10:46:30;;;;;;;19.48;12.95;;;;;;;1.96;94.09;101484.05;1741408;82;21149;-71
2020/12/21 10:48:58;;;;;;;21.25;14.65;;;;;;;1.97;94.33;101479.89;1742241;81;22277;-70
2020/12/21 10:51:28;;;;;;;23.75;15.78;;;;;;;1.98;94.45;101480.24;1748974;81;21140;-70
2020/12/21 10:53:56;;;;;;;21.93;12.80;;;;;;;1.99;94.46;101480.59;1743399;81;21418;-74
2020/12/21 10:56:24;;;;;;;24.70;14.47;;;;;;;2.04;94.46;101478.81;1711184;83;21135;-72
2020/12/21 10:58:52;;;;;;;26.30;14.47;;;;;;;2.04;94.06;101480.14;1738146;81;21605;-70
2020/12/21 11:01:19;;;;;;;25.70;16.00;;;;;;;2.04;93.88;101483.63;1709854;83;21160;-70
2020/12/21 11:03:47;;;;;;;24.55;15.50;;;;;;;2.05;93.68;101482.66;1750762;82;21160;-70
2020/12/21 11:06:24;;;;;;;29.95;16.85;;;;;;;2.04;93.39;101482.80;1750566;82;21356;-75
2020/12/21 11:08:53;;;;;;;20.82;13.80;;;;;;;2.09;93.49;101479.20;1681482;85;21654;-71
2020/12/21 11:11:28;;;;;;;32.73;19.27;;;;;;;2.16;93.24;101487.72;1742348;82;21580;-71
2020/12/21 11:13:55;;;;;;;26.90;16.77;;;;;;;2.15;92.68;101484.75;1750694;82;21610;-70
2020/12/21 11:16:23;;;;;;;31.65;18.50;;;;;;;2.12;92.31;101487.69;1745892;82;21578;-72
2020/12/21 11:18:51;;;;;;;33.05;18.92;;;;;;;2.11;92.13;101484.68;1738417;82;21201;-68
2020/12/21 11:21:19;;;;;;;32.05;16.27;;;;;;;2.08;92.03;101490.30;1737349;82;21145;-68
2020/12/21 11:23:49;;;;;;;28.57;16.45;;;;;;;2.10;92.18;101480.38;1736704;82;21047;-68
2020/12/21 11:26:18;;;;;;;46.33;24.12;;;;;;;2.12;92.20;101480.20;1737838;82;21142;-67